Архив погоды в Кирове

Метеограмма Киров
Среда, 26 Сентября
Время местн. Темп Ветер Видим Явления Облачность нижн/средн/верх Атм. давл. Влжн Точка росы ВНГО R Сост. почвы Tg s
Напр Скр Прв ур.ст ур.м изм
03:00 +8.4° Ю,Ю-З 2 6 20 км небо без изменений {дождь} облачно 740 754 +0.8 95% +7.6° 1 км - - - -
00:00 +10.4° Ю-З 2 4 20 км небо без изменений {дождь} облачно 739 753 +0.3 96% +9.8° 600 м - - - -
Вторник, 25 Сентября
Время местн. Темп Ветер Видим Явления Облачность нижн/средн/верх Атм. давл. Влжн Точка росы ВНГО R Сост. почвы Tg s
Напр Скр Прв ур.ст ур.м изм
21:00 +10.9° Ю,Ю-З 2 8 10 км слабый непрерывный дождь облачно 739 753 -0.4 96% +10.3° 600 м - - - -
18:00 +10.9° Ю 3 8 10 км слабый непрерывный дождь облачно 739 753 -1.1 95% +10.2° 600 м - - - -
15:00 +9.4° Ю-В 3 7 10 км слабый непрерывный дождь облачно 740 755 -1.1 95% +8.6° 600 м - - - -
12:00 +9.4° Ю-В 3 6 10 км слабый непрерывный дождь облачно 741 756 -1.1 96% +8.8° 600 м - - - -
09:00 +7.4° В,Ю-В 2 3 2 км слабый непрерывный дождь {туман} облачно 743 757 -0.7 98% +7.1° 300 м - - - -
06:00 +6.7° В 1 2 0.5 км туман усиливается неба не видно 743 758 -0.8 100% +6.7° - - Сырая (есть малые или большие лужи) - -
03:00 +6.8° В 1 2 4 км дымка облачно 744 758 -0.7 99% +6.6° - - - - -
00:00 +6.5° З 1 1 2 км дымка облачно 745 759 -0.3 99% +6.3° - - - - -
Понедельник, 24 Сентября
Время местн. Темп Ветер Видим Явления Облачность нижн/средн/верх Атм. давл. Влжн Точка росы ВНГО R Сост. почвы Tg s
Напр Скр Прв ур.ст ур.м изм
21:00 +7° штиль 0 0 20 км небо без изменений {ливневые осадки} облачно 745 759 +0.1 99% +6.8° - - - - -
18:00 +9.4° З,С-З 1 2 20 км небо без изменений {ливневые осадки} облачно 745 759 +1.2 96% +8.8° 1 км - - - -
15:00 +9.7° С-З 1 3 10 км слабый ливневый дождь облачно 744 758 +2.3 95% +9° 600 м - - - -
12:00 +16° З 3 6 20 км - облачно 741 755 +0.3 74% +11.3° 1 км - - - -
09:00 +16.9° Ю 2 5 20 км - облачно 741 755 +0.1 70% +11.3° 1 км - - - -
06:00 +13.5° Ю 3 6 20 км - облачно 741 755 -0.4 84% +10.9° 1 км - Сухая (без трещин) - -
03:00 +14.7° Ю 2 5 20 км - переменная облачность 741 756 -0.6 81% +11.5° более 2.5 км - - - -
00:00 +16.2° Ю 3 6 20 км - переменная облачность 742 756 -0.8 77% +12.1° более 2.5 км - - - -
Воскресенье, 23 Сентября
Время местн. Темп Ветер Видим Явления Облачность нижн/средн/верх Атм. давл. Влжн Точка росы ВНГО R Сост. почвы Tg s
Напр Скр Прв ур.ст ур.м изм
21:00 +17.5° Ю 3 7 20 км - переменная облачность 743 757 -0.8 71% +12.1° более 2.5 км - - - -
18:00 +19.3° Ю 2 4 20 км - переменная облачность 744 757 -0.9 62% +11.8° более 2.5 км - - - -
15:00 +22.6° Ю 3 7 20 км - ясно 745 758 -1.1 48% +10.9° более 2.5 км - - - -
12:00 +22.5° Ю 3 8 20 км - облачно с прояснениями 746 759 -1.1 54% +12.7° более 2.5 км - - - -
09:00 +17.4° Ю 2 4 20 км - переменная облачность 747 761 -0.6 74% +12.7° более 2.5 км - - - -
06:00 +11.2° Ю,Ю-В 1 2 20 км - ясно 747 762 -0.5 98% +10.9° более 2.5 км - Влажная (без луж) - -
03:00 +11.9° Ю 1 2 20 км - переменная облачность 748 762 -0.4 97% +11.5° более 2.5 км - - - -
00:00 +13.6° Ю-З 1 2 20 км - переменная облачность 748 762 -0.4 97% +13.2° более 2.5 км - - - -